Mashhad, Iran
Current Conditions -  °F | °C
As of 3:50 PM on Tuesday 27 Jan 2015 (Local Time) from OIMM Reporting Station
Clear Clear  
Wind Chill: 43°   Ceiling: Unl
Heat Index: 46°   Visibility: 4mi
Dew Point: 16°   Wind: 7mph
Humidity: 29%   Direction: 130°SE
Pressure: 30.03"   Gusts: NA
Location:  36.27°N, 59.57°E
Report Text: OIMM 271150Z 13006KT 6000 NSC 08/M09 Q1017 A3003
Loading
Personal Weather Stations






























Interactive Weather Map New forecast layout! Learn more

10-Day Weather Forecast

Advertisements
Track Severe Weather on mobile